createdAt,value
2018-09-01T00:00:03.578Z,15.00
2018-09-01T00:02:32.692Z,15.00
2018-09-01T00:05:01.920Z,15.00
2018-09-01T00:07:31.141Z,15.00
2018-09-01T00:10:00.154Z,15.00
2018-09-01T00:12:29.234Z,15.00
2018-09-01T00:14:58.313Z,15.10
2018-09-01T00:17:28.349Z,15.10
2018-09-01T00:19:59.517Z,15.00
2018-09-01T00:22:28.667Z,15.00
2018-09-01T00:24:57.769Z,14.90
2018-09-01T00:27:26.871Z,14.80
2018-09-01T00:29:56.243Z,14.80
2018-09-01T00:32:25.306Z,14.90
2018-09-01T00:34:54.442Z,14.80
2018-09-01T00:37:28.855Z,14.90
2018-09-01T00:39:58.589Z,14.90
2018-09-01T00:42:27.678Z,14.90
2018-09-01T00:44:56.763Z,14.90
2018-09-01T00:47:25.865Z,14.80
2018-09-01T00:49:55.090Z,14.80
2018-09-01T00:52:24.209Z,14.80
2018-09-01T00:54:53.294Z,14.80
2018-09-01T00:57:22.477Z,14.80
2018-09-01T00:59:52.004Z,14.80
2018-09-01T01:02:21.126Z,14.70
2018-09-01T01:04:50.240Z,14.80
2018-09-01T01:07:19.379Z,14.90
2018-09-01T01:09:48.507Z,14.80
2018-09-01T01:12:18.286Z,14.70
2018-09-01T01:14:47.390Z,14.60
2018-09-01T01:17:16.493Z,14.70
2018-09-01T01:19:45.583Z,14.80
2018-09-01T01:22:14.699Z,14.90
2018-09-01T01:24:43.813Z,14.90
2018-09-01T01:27:12.930Z,14.90
2018-09-01T01:29:42.797Z,14.90
2018-09-01T01:32:11.946Z,14.90
2018-09-01T01:34:41.673Z,14.90
2018-09-01T01:37:10.770Z,14.90
2018-09-01T01:39:39.893Z,14.90
2018-09-01T01:42:09.037Z,14.90
2018-09-01T01:44:38.125Z,15.00
2018-09-01T01:47:07.269Z,15.00
2018-09-01T01:49:36.546Z,15.00
2018-09-01T01:52:06.349Z,14.90
2018-09-01T01:54:35.437Z,14.90
2018-09-01T01:57:04.761Z,15.00
2018-09-01T01:59:33.861Z,15.00
2018-09-01T02:02:03.162Z,14.90
2018-09-01T02:04:32.450Z,14.90
2018-09-01T02:07:01.573Z,14.80
2018-09-01T02:09:30.728Z,14.90
2018-09-01T02:11:59.862Z,14.80
2018-09-01T02:14:28.986Z,14.90
2018-09-01T02:16:58.191Z,14.80
2018-09-01T02:19:27.434Z,14.80
2018-09-01T02:21:56.598Z,14.80
2018-09-01T02:24:25.677Z,14.90
2018-09-01T02:26:54.801Z,14.80
2018-09-01T02:29:24.058Z,14.80
2018-09-01T02:31:53.185Z,14.70
2018-09-01T02:34:22.260Z,14.80
2018-09-01T02:36:51.366Z,14.80
2018-09-01T02:39:20.422Z,14.80
2018-09-01T02:41:49.570Z,14.70
2018-09-01T02:44:18.633Z,14.70
2018-09-01T02:46:48.333Z,14.80
2018-09-01T02:49:17.519Z,14.70
2018-09-01T02:51:46.602Z,14.70
2018-09-01T02:54:15.868Z,14.70
2018-09-01T02:56:44.943Z,14.60
2018-09-01T02:59:14.090Z,14.60
2018-09-01T03:01:43.164Z,14.60
2018-09-01T03:04:12.267Z,14.60
2018-09-01T03:06:52.005Z,14.60
2018-09-01T03:09:21.817Z,14.70
2018-09-01T03:11:51.721Z,14.60
2018-09-01T03:14:21.549Z,14.60
2018-09-01T03:16:51.026Z,14.60
2018-09-01T03:19:20.136Z,14.60
2018-09-01T03:21:49.197Z,14.60
2018-09-01T03:24:18.286Z,14.60
2018-09-01T03:26:47.499Z,14.60
2018-09-01T03:29:16.604Z,14.60
2018-09-01T03:31:45.680Z,14.70
2018-09-01T03:34:14.847Z,14.70
2018-09-01T03:36:43.938Z,14.70
2018-09-01T03:39:13.169Z,14.70
2018-09-01T03:41:42.276Z,14.60
2018-09-01T03:44:11.409Z,14.50
2018-09-01T03:46:40.513Z,14.50
2018-09-01T03:49:10.453Z,14.50
2018-09-01T03:51:39.541Z,14.50
2018-09-01T03:54:08.653Z,14.50
2018-09-01T03:56:38.544Z,14.50
2018-09-01T03:59:07.695Z,14.50
2018-09-01T04:01:36.791Z,14.50
2018-09-01T04:04:05.945Z,14.50
2018-09-01T04:06:35.050Z,14.50
2018-09-01T04:09:04.369Z,14.50
2018-09-01T04:11:33.476Z,14.50
2018-09-01T04:14:02.633Z,14.50
2018-09-01T04:16:31.724Z,14.50
2018-09-01T04:19:05.091Z,14.50
2018-09-01T04:21:34.229Z,14.50
2018-09-01T04:24:03.385Z,14.50
2018-09-01T04:26:32.477Z,14.50
2018-09-01T04:29:01.583Z,14.50
2018-09-01T04:31:30.690Z,14.60
2018-09-01T04:33:59.793Z,14.60
2018-09-01T04:36:28.867Z,14.70
2018-09-01T04:38:58.045Z,14.70
2018-09-01T04:41:27.809Z,14.80
2018-09-01T04:43:57.085Z,14.70
2018-09-01T04:46:26.390Z,14.80
2018-09-01T04:48:55.621Z,14.80
2018-09-01T04:51:24.698Z,14.80
2018-09-01T04:53:56.681Z,14.80
2018-09-01T04:56:28.282Z,14.70
2018-09-01T04:58:57.327Z,14.80
2018-09-01T05:01:27.877Z,14.90
2018-09-01T05:03:56.955Z,14.80
2018-09-01T05:06:31.080Z,15.20
2018-09-01T05:09:00.122Z,15.50
2018-09-01T05:11:29.229Z,15.50
2018-09-01T05:13:58.917Z,15.30
2018-09-01T05:16:28.045Z,15.00
2018-09-01T05:18:57.185Z,14.80
2018-09-01T05:21:26.309Z,14.80
2018-09-01T05:23:55.461Z,14.70
2018-09-01T05:26:24.525Z,15.00
2018-09-01T05:28:53.686Z,15.10
2018-09-01T05:31:22.770Z,15.10
2018-09-01T05:33:51.917Z,15.00
2018-09-01T05:36:21.076Z,15.00
2018-09-01T05:38:50.160Z,14.90
2018-09-01T05:41:19.255Z,14.90
2018-09-01T05:43:48.319Z,14.90
2018-09-01T05:46:17.413Z,15.00
2018-09-01T05:48:46.633Z,14.90
2018-09-01T05:51:15.713Z,15.00
2018-09-01T05:53:44.789Z,15.00
2018-09-01T05:56:14.014Z,15.00
2018-09-01T05:58:43.773Z,14.80
2018-09-01T06:01:12.937Z,14.80
2018-09-01T06:03:42.029Z,14.90
2018-09-01T06:06:11.242Z,14.90
2018-09-01T06:08:40.267Z,14.90
2018-09-01T06:11:09.470Z,14.80
2018-09-01T06:13:38.546Z,14.90
2018-09-01T06:16:08.204Z,14.90
2018-09-01T06:18:37.278Z,15.00
2018-09-01T06:21:06.349Z,15.10
2018-09-01T06:23:35.455Z,15.00
2018-09-01T06:26:04.718Z,15.10
2018-09-01T06:28:37.122Z,15.00
2018-09-01T06:31:06.557Z,15.10
2018-09-01T06:33:35.738Z,15.10
2018-09-01T06:36:05.058Z,15.20
2018-09-01T06:38:34.237Z,15.20
2018-09-01T06:41:03.373Z,15.20
2018-09-01T06:43:32.510Z,15.30
2018-09-01T06:46:02.374Z,15.20
2018-09-01T06:48:31.490Z,15.30
2018-09-01T06:51:01.057Z,15.40
2018-09-01T06:53:30.202Z,15.30
2018-09-01T06:55:59.372Z,15.20
2018-09-01T06:58:28.508Z,15.40
2018-09-01T07:00:57.584Z,15.40
2018-09-01T07:03:27.330Z,15.40
2018-09-01T07:05:56.437Z,15.40
2018-09-01T07:08:25.709Z,15.50
2018-09-01T07:10:54.784Z,15.40
2018-09-01T07:13:23.885Z,15.50
2018-09-01T07:15:52.988Z,15.30
2018-09-01T07:18:22.205Z,15.40
2018-09-01T07:20:51.299Z,15.30
2018-09-01T07:23:20.438Z,15.40
2018-09-01T07:25:49.521Z,15.40
2018-09-01T07:28:18.649Z,15.40
2018-09-01T07:30:47.953Z,15.40
2018-09-01T07:33:16.973Z,15.30
2018-09-01T07:35:46.100Z,15.30
2018-09-01T07:38:15.229Z,15.30
2018-09-01T07:40:44.317Z,15.30
2018-09-01T07:43:13.438Z,15.20
2018-09-01T07:45:42.554Z,15.20
2018-09-01T07:48:11.761Z,15.20
2018-09-01T07:50:40.870Z,15.40
2018-09-01T07:53:10.001Z,15.30
2018-09-01T07:55:39.115Z,15.20
2018-09-01T07:58:08.281Z,15.30
2018-09-01T08:00:37.413Z,15.30
2018-09-01T08:03:07.194Z,15.30
2018-09-01T08:05:36.368Z,15.30
2018-09-01T08:08:05.486Z,15.20
2018-09-01T08:10:34.647Z,15.40
2018-09-01T08:13:03.751Z,15.20
2018-09-01T08:15:32.872Z,15.30
2018-09-01T08:18:01.984Z,15.40
2018-09-01T08:20:31.097Z,15.40
2018-09-01T08:23:00.234Z,15.40
2018-09-01T08:25:29.422Z,15.40
2018-09-01T08:27:58.603Z,15.30
2018-09-01T08:30:27.751Z,15.40
2018-09-01T08:32:56.894Z,15.40
2018-09-01T08:35:26.047Z,15.50
2018-09-01T08:37:55.156Z,15.30
2018-09-01T08:40:24.309Z,15.20
2018-09-01T08:42:54.026Z,15.20
2018-09-01T08:45:23.261Z,15.30
2018-09-01T08:47:52.925Z,15.20
2018-09-01T08:50:22.050Z,15.30
2018-09-01T08:52:51.161Z,15.40
2018-09-01T08:55:20.257Z,15.30
2018-09-01T08:57:49.413Z,15.30
2018-09-01T09:00:18.561Z,15.40
2018-09-01T09:02:48.069Z,15.50
2018-09-01T09:05:17.206Z,15.50
2018-09-01T09:07:47.466Z,15.50
2018-09-01T09:10:17.442Z,15.50
2018-09-01T09:12:46.590Z,15.50
2018-09-01T09:15:15.688Z,15.40
2018-09-01T09:17:45.078Z,15.60
2018-09-01T09:20:14.254Z,15.40
2018-09-01T09:22:43.407Z,15.30
2018-09-01T09:25:12.529Z,15.40
2018-09-01T09:27:41.641Z,15.50
2018-09-01T09:30:10.977Z,15.50
2018-09-01T09:32:40.066Z,15.50
2018-09-01T09:35:09.199Z,15.40
2018-09-01T09:37:38.278Z,15.40
2018-09-01T09:40:07.553Z,15.40
2018-09-01T09:42:36.782Z,15.50
2018-09-01T09:45:05.913Z,15.50
2018-09-01T09:47:35.117Z,15.50
2018-09-01T09:50:04.264Z,15.60
2018-09-01T09:52:33.404Z,15.50
2018-09-01T09:55:02.510Z,15.60
2018-09-01T09:57:31.585Z,15.70
2018-09-01T10:00:00.655Z,15.80
2018-09-01T10:02:29.847Z,15.60
2018-09-01T10:04:58.929Z,15.60
2018-09-01T10:07:28.046Z,15.60
2018-09-01T10:09:57.113Z,15.60
2018-09-01T10:12:26.263Z,15.70
2018-09-01T10:14:55.335Z,15.70
2018-09-01T10:17:24.424Z,15.80
2018-09-01T10:19:53.543Z,15.90
2018-09-01T10:22:22.635Z,16.00
2018-09-01T10:24:51.681Z,16.00
2018-09-01T10:27:20.910Z,15.90
2018-09-01T10:29:49.999Z,15.90
2018-09-01T10:32:19.100Z,15.90
2018-09-01T10:34:48.921Z,15.90
2018-09-01T10:37:18.218Z,16.00
2018-09-01T10:39:47.265Z,16.10
2018-09-01T10:42:16.389Z,16.20
2018-09-01T10:44:45.466Z,16.10
2018-09-01T10:47:14.605Z,16.20
2018-09-01T10:49:43.694Z,16.30
2018-09-01T10:52:12.961Z,16.30
2018-09-01T10:54:42.032Z,16.40
2018-09-01T10:57:11.253Z,16.40
2018-09-01T10:59:40.624Z,16.40
2018-09-01T11:02:09.626Z,16.30
2018-09-01T11:04:38.682Z,16.10
2018-09-01T11:07:07.949Z,16.10
2018-09-01T11:09:37.059Z,16.10
2018-09-01T11:12:06.161Z,16.10
2018-09-01T11:14:35.263Z,16.10
2018-09-01T11:17:04.521Z,16.10
2018-09-01T11:19:33.898Z,16.10
2018-09-01T11:22:03.041Z,16.00
2018-09-01T11:24:32.254Z,16.20
2018-09-01T11:27:01.325Z,16.20
2018-09-01T11:29:30.470Z,16.10
2018-09-01T11:31:59.549Z,16.10
2018-09-01T11:34:28.740Z,16.00
2018-09-01T11:36:57.920Z,16.10
2018-09-01T11:39:27.030Z,16.20
2018-09-01T11:41:56.094Z,16.20
2018-09-01T11:44:25.266Z,16.40
2018-09-01T11:46:54.376Z,16.40
2018-09-01T11:49:23.445Z,16.40
2018-09-01T11:51:52.511Z,16.20
2018-09-01T11:54:21.622Z,16.20
2018-09-01T11:56:50.797Z,16.40
2018-09-01T11:59:19.872Z,16.40
2018-09-01T12:01:48.973Z,16.40
2018-09-01T12:04:18.082Z,16.50
2018-09-01T12:06:47.186Z,16.60
2018-09-01T12:09:16.268Z,16.50
2018-09-01T12:11:45.840Z,16.60
2018-09-01T12:14:14.953Z,16.50
2018-09-01T12:16:44.465Z,16.50
2018-09-01T12:19:13.653Z,16.40
2018-09-01T12:21:42.756Z,16.40
2018-09-01T12:24:11.836Z,16.50
2018-09-01T12:26:40.918Z,16.50
2018-09-01T12:29:10.031Z,16.50
2018-09-01T12:31:39.398Z,16.60
2018-09-01T12:34:08.525Z,16.50
2018-09-01T12:36:37.609Z,16.60
2018-09-01T12:39:06.967Z,16.40
2018-09-01T12:41:36.059Z,16.40
2018-09-01T12:44:05.266Z,16.30
2018-09-01T12:46:34.353Z,16.50
2018-09-01T12:49:03.439Z,16.60
2018-09-01T12:51:32.530Z,16.60
2018-09-01T12:54:01.657Z,16.60
2018-09-01T12:56:30.941Z,16.70
2018-09-01T12:59:00.051Z,16.60
2018-09-01T13:01:29.229Z,16.50
2018-09-01T13:03:58.297Z,16.60
2018-09-01T13:06:27.445Z,16.60
2018-09-01T13:08:56.519Z,16.60
2018-09-01T13:11:25.589Z,16.70
2018-09-01T13:13:54.710Z,16.80
2018-09-01T13:16:23.806Z,16.80
2018-09-01T13:18:53.618Z,16.80
2018-09-01T13:21:22.742Z,16.60
2018-09-01T13:23:51.824Z,16.70
2018-09-01T13:26:21.616Z,16.60
2018-09-01T13:28:51.353Z,16.70
2018-09-01T13:31:20.490Z,16.60
2018-09-01T13:33:49.637Z,16.70
2018-09-01T13:36:18.978Z,16.60
2018-09-01T13:38:48.127Z,16.60
2018-09-01T13:41:17.185Z,16.70
2018-09-01T13:43:46.278Z,16.70
2018-09-01T13:46:15.416Z,16.80
2018-09-01T13:48:44.469Z,16.70
2018-09-01T13:51:13.538Z,16.60
2018-09-01T13:53:42.586Z,16.80
2018-09-01T13:56:11.661Z,16.70
2018-09-01T13:58:40.731Z,16.50
2018-09-01T14:01:10.025Z,16.50
2018-09-01T14:03:39.086Z,16.60
2018-09-01T14:06:08.166Z,16.70
2018-09-01T14:08:37.217Z,16.60
2018-09-01T14:11:06.713Z,16.70
2018-09-01T14:13:35.865Z,16.40
2018-09-01T14:16:04.986Z,16.30
2018-09-01T14:18:34.065Z,16.40
2018-09-01T14:21:03.237Z,16.40
2018-09-01T14:23:32.265Z,16.40
2018-09-01T14:26:01.346Z,16.40
2018-09-01T14:28:30.477Z,16.40
2018-09-01T14:30:59.634Z,16.40
2018-09-01T14:33:29.267Z,16.50
2018-09-01T14:35:58.457Z,16.50
2018-09-01T14:38:27.609Z,16.50
2018-09-01T14:40:56.700Z,16.50
2018-09-01T14:43:25.839Z,16.50
2018-09-01T14:45:54.969Z,16.50
2018-09-01T14:48:24.756Z,16.40
2018-09-01T14:50:53.803Z,16.40
2018-09-01T14:53:22.956Z,16.50
2018-09-01T14:55:52.614Z,16.50
2018-09-01T14:58:22.062Z,16.40
2018-09-01T15:00:52.398Z,16.30
2018-09-01T15:03:21.833Z,16.30
2018-09-01T15:05:52.409Z,16.30
2018-09-01T15:08:21.603Z,16.20
2018-09-01T15:10:50.797Z,16.20
2018-09-01T15:13:19.874Z,16.10
2018-09-01T15:15:51.949Z,16.10
2018-09-01T15:18:21.246Z,16.00
2018-09-01T15:20:50.411Z,16.10
2018-09-01T15:23:19.502Z,16.00
2018-09-01T15:25:48.613Z,15.90
2018-09-01T15:28:17.950Z,15.90
2018-09-01T15:30:47.063Z,16.10
2018-09-01T15:33:16.151Z,16.10
2018-09-01T15:35:45.297Z,16.00
2018-09-01T15:38:14.363Z,16.00
2018-09-01T15:40:44.034Z,15.90
2018-09-01T15:43:15.087Z,15.80
2018-09-01T15:45:45.340Z,15.80
2018-09-01T15:48:15.094Z,15.80
2018-09-01T15:50:44.573Z,15.80
2018-09-01T15:53:14.110Z,15.80
2018-09-01T15:55:43.998Z,15.70
2018-09-01T15:58:13.834Z,15.50
2018-09-01T16:00:43.787Z,15.50
2018-09-01T16:03:13.867Z,15.60
2018-09-01T16:05:43.938Z,15.60
2018-09-01T16:08:13.866Z,15.70
2018-09-01T16:10:44.059Z,15.70
2018-09-01T16:13:14.163Z,15.60
2018-09-01T16:15:44.185Z,15.60
2018-09-01T16:18:14.119Z,15.60
2018-09-01T16:20:44.011Z,15.50
2018-09-01T16:23:13.663Z,15.60
2018-09-01T16:25:43.637Z,15.60
2018-09-01T16:28:14.057Z,15.50
2018-09-01T16:30:43.971Z,15.40
2018-09-01T16:33:13.894Z,15.30
2018-09-01T16:35:43.674Z,15.30
2018-09-01T16:38:13.744Z,15.30
2018-09-01T16:40:43.737Z,15.40
2018-09-01T16:43:13.805Z,15.40
2018-09-01T16:45:43.846Z,15.50
2018-09-01T16:48:14.296Z,15.50
2018-09-01T16:50:44.197Z,15.50
2018-09-01T16:53:13.465Z,15.60
2018-09-01T16:55:42.541Z,15.60
2018-09-01T16:58:11.991Z,15.50
2018-09-01T17:00:41.188Z,15.40
2018-09-01T17:03:11.037Z,15.40
2018-09-01T17:05:40.298Z,15.50
2018-09-01T17:08:09.584Z,15.30
2018-09-01T17:10:38.676Z,15.30
2018-09-01T17:13:07.771Z,15.30
2018-09-01T17:15:37.185Z,15.30
2018-09-01T17:18:06.462Z,15.40
2018-09-01T17:20:35.680Z,15.40
2018-09-01T17:23:04.901Z,15.40
2018-09-01T17:25:34.094Z,15.30
2018-09-01T17:28:03.289Z,15.20
2018-09-01T17:30:33.607Z,15.40
2018-09-01T17:33:02.819Z,15.30
2018-09-01T17:35:32.021Z,15.20
2018-09-01T17:38:01.185Z,15.20
2018-09-01T17:40:31.402Z,15.30
2018-09-01T17:43:01.602Z,15.20
2018-09-01T17:45:31.766Z,15.20
2018-09-01T17:48:01.777Z,15.10
2018-09-01T17:50:31.975Z,14.90
2018-09-01T17:53:04.106Z,14.90
2018-09-01T17:55:33.651Z,14.80
2018-09-01T17:58:03.046Z,14.80
2018-09-01T18:00:32.274Z,15.00
2018-09-01T18:03:01.978Z,14.80
2018-09-01T18:05:31.190Z,14.80
2018-09-01T18:08:00.313Z,15.00
2018-09-01T18:10:30.320Z,14.90
2018-09-01T18:12:59.972Z,14.90
2018-09-01T18:15:30.505Z,14.90
2018-09-01T18:18:01.196Z,15.00
2018-09-01T18:20:30.757Z,14.90
2018-09-01T18:23:00.379Z,14.90
2018-09-01T18:25:30.036Z,14.80
2018-09-01T18:28:02.151Z,14.80
2018-09-01T18:30:34.352Z,14.90
2018-09-01T18:33:05.701Z,14.90
2018-09-01T18:35:36.780Z,14.70
2018-09-01T18:38:07.792Z,14.80
2018-09-01T18:40:41.110Z,14.70
2018-09-01T18:43:13.025Z,14.70
2018-09-01T18:45:42.898Z,14.70
2018-09-01T18:48:13.328Z,14.60
2018-09-01T18:50:42.875Z,14.70
2018-09-01T18:53:13.070Z,14.60
2018-09-01T18:55:42.226Z,14.70
2018-09-01T18:58:11.371Z,14.60
2018-09-01T19:00:42.637Z,14.60
2018-09-01T19:03:12.773Z,14.50
2018-09-01T19:05:43.273Z,14.50
2018-09-01T19:08:12.557Z,14.50
2018-09-01T19:10:41.647Z,14.60
2018-09-01T19:13:11.417Z,14.50
2018-09-01T19:15:40.732Z,14.60
2018-09-01T19:18:09.893Z,14.60
2018-09-01T19:20:39.107Z,14.60
2018-09-01T19:23:08.229Z,14.50
2018-09-01T19:25:38.226Z,14.60
2018-09-01T19:28:07.351Z,14.60
2018-09-01T19:30:36.398Z,14.50
2018-09-01T19:33:05.506Z,14.50
2018-09-01T19:35:34.642Z,14.50
2018-09-01T19:38:03.785Z,14.50
2018-09-01T19:40:32.939Z,14.50
2018-09-01T19:43:02.032Z,14.50
2018-09-01T19:45:31.300Z,14.50
2018-09-01T19:48:00.333Z,14.50
2018-09-01T19:50:29.497Z,14.50
2018-09-01T19:52:58.638Z,14.60
2018-09-01T19:55:28.046Z,14.50
2018-09-01T19:57:57.818Z,14.50
2018-09-01T20:00:26.954Z,14.50
2018-09-01T20:02:56.106Z,14.40
2018-09-01T20:05:25.419Z,14.40
2018-09-01T20:07:54.598Z,14.40
2018-09-01T20:10:24.251Z,14.40
2018-09-01T20:12:54.430Z,14.40
2018-09-01T20:15:23.531Z,14.40
2018-09-01T20:17:52.793Z,14.40
2018-09-01T20:20:21.946Z,14.40
2018-09-01T20:22:51.037Z,14.40
2018-09-01T20:25:20.374Z,14.40
2018-09-01T20:27:49.545Z,14.50
2018-09-01T20:30:18.689Z,14.30
2018-09-01T20:32:47.822Z,14.40
2018-09-01T20:35:22.893Z,14.40
2018-09-01T20:37:52.041Z,14.30
2018-09-01T20:40:21.165Z,14.30
2018-09-01T20:42:50.297Z,14.30
2018-09-01T20:45:19.476Z,14.30
2018-09-01T20:47:48.590Z,14.40
2018-09-01T20:50:17.698Z,14.30
2018-09-01T20:52:46.805Z,14.20
2018-09-01T20:55:15.905Z,14.20
2018-09-01T20:57:45.488Z,14.30
2018-09-01T21:00:14.552Z,14.30
2018-09-01T21:02:43.652Z,14.30
2018-09-01T21:05:12.995Z,14.30
2018-09-01T21:07:42.257Z,14.30
2018-09-01T21:10:11.989Z,14.10
2018-09-01T21:12:41.081Z,14.20
2018-09-01T21:15:10.191Z,14.30
2018-09-01T21:17:39.377Z,14.20
2018-09-01T21:20:08.717Z,14.10
2018-09-01T21:22:37.845Z,14.10
2018-09-01T21:25:06.987Z,14.10
2018-09-01T21:27:36.094Z,14.10
2018-09-01T21:30:06.134Z,14.20
2018-09-01T21:32:35.273Z,14.10
2018-09-01T21:35:04.614Z,14.10
2018-09-01T21:37:34.371Z,14.10
2018-09-01T21:40:03.493Z,14.10
2018-09-01T21:42:33.538Z,14.10
2018-09-01T21:45:02.648Z,14.10
2018-09-01T21:47:31.890Z,14.10
2018-09-01T21:50:01.002Z,14.00
2018-09-01T21:52:30.082Z,14.00
2018-09-01T21:54:59.778Z,14.10
2018-09-01T21:57:28.990Z,14.20
2018-09-01T21:59:58.142Z,14.10
2018-09-01T22:02:27.254Z,14.00
2018-09-01T22:05:01.658Z,14.00
2018-09-01T22:07:30.722Z,13.90
2018-09-01T22:09:59.935Z,14.10
2018-09-01T22:12:29.001Z,14.10
2018-09-01T22:14:58.114Z,14.20
2018-09-01T22:17:27.302Z,14.10
2018-09-01T22:19:56.418Z,13.90
2018-09-01T22:22:25.605Z,14.00
2018-09-01T22:24:59.980Z,13.80
2018-09-01T22:27:31.051Z,14.00
2018-09-01T22:30:00.476Z,14.00
2018-09-01T22:32:30.114Z,14.10
2018-09-01T22:35:00.825Z,14.10
2018-09-01T22:37:30.313Z,14.10
2018-09-01T22:40:00.030Z,14.20
2018-09-01T22:42:29.865Z,14.10
2018-09-01T22:44:59.908Z,14.20
2018-09-01T22:47:31.125Z,14.10
2018-09-01T22:50:00.595Z,14.20
2018-09-01T22:52:30.121Z,14.20
2018-09-01T22:54:59.210Z,14.10
2018-09-01T22:57:29.459Z,14.10
2018-09-01T22:59:59.853Z,14.20
2018-09-01T23:02:29.982Z,14.20
2018-09-01T23:05:00.055Z,14.10
2018-09-01T23:07:30.078Z,14.10
2018-09-01T23:09:59.897Z,14.00
2018-09-01T23:12:29.924Z,14.10
2018-09-01T23:14:59.964Z,14.00
2018-09-01T23:17:30.050Z,14.10
2018-09-01T23:20:00.365Z,14.10
2018-09-01T23:22:30.294Z,14.10
2018-09-01T23:25:05.506Z,14.00
2018-09-01T23:27:34.654Z,14.00
2018-09-01T23:30:04.047Z,14.00
2018-09-01T23:32:34.329Z,14.20
2018-09-01T23:35:04.676Z,14.10
2018-09-01T23:37:34.677Z,14.10
2018-09-01T23:40:04.951Z,14.10
2018-09-01T23:42:35.183Z,14.00
2018-09-01T23:45:05.533Z,13.90
2018-09-01T23:47:36.568Z,13.90
2018-09-01T23:50:07.611Z,13.90
2018-09-01T23:52:38.557Z,13.90
2018-09-01T23:55:10.637Z,13.90
2018-09-01T23:57:41.156Z,13.90
